createdAt,value
2023-06-11T00:04:50.108Z,1011.1
2023-06-11T00:20:24.295Z,1011.2
2023-06-11T00:35:58.425Z,1011.3
2023-06-11T00:51:32.576Z,1011.4
2023-06-11T01:07:06.749Z,1011.4
2023-06-11T01:22:40.860Z,1011.5
2023-06-11T01:38:14.989Z,1011.6
2023-06-11T01:53:49.150Z,1011.7
2023-06-11T02:09:23.273Z,1011.7
2023-06-11T02:24:57.470Z,1011.8
2023-06-11T02:40:31.555Z,1011.9
2023-06-11T02:56:05.682Z,1012
2023-06-11T03:11:39.924Z,1012.1
2023-06-11T03:27:14.010Z,1012.2
2023-06-11T03:42:48.111Z,1012.1
2023-06-11T03:58:22.358Z,1012.2
2023-06-11T04:13:56.498Z,1012.1
2023-06-11T04:29:30.880Z,1012.2
2023-06-11T04:45:05.157Z,1012.2
2023-06-11T05:00:39.408Z,1012.2
2023-06-11T05:16:14.010Z,1012.3
2023-06-11T05:31:49.012Z,1012.3
2023-06-11T05:47:24.108Z,1012.3
2023-06-11T06:02:58.912Z,1012.3
2023-06-11T06:18:34.117Z,1012.2
2023-06-11T06:34:08.353Z,1012.2
2023-06-11T06:49:42.548Z,1012
2023-06-11T07:05:18.266Z,1012.1
2023-06-11T07:20:52.910Z,1012
2023-06-11T07:53:15.352Z,1012
2023-06-11T08:08:49.711Z,1011.8
2023-06-11T08:24:23.983Z,1011.7
2023-06-11T08:39:58.337Z,1011.7
2023-06-11T08:55:32.769Z,1011.5
2023-06-11T09:11:07.036Z,1011.6
2023-06-11T09:26:41.366Z,1011.4
2023-06-11T09:42:15.683Z,1011.5
2023-06-11T09:57:49.968Z,1011.5
2023-06-11T10:13:24.243Z,1011.8
2023-06-11T10:28:58.630Z,1011.7
2023-06-11T10:44:32.912Z,1011.5
2023-06-11T11:00:07.394Z,1011.4
2023-06-11T11:15:42.281Z,1011.3
2023-06-11T11:31:16.788Z,1011.2
2023-06-11T11:46:51.415Z,1011
2023-06-11T12:02:25.773Z,1011
2023-06-11T12:18:00.641Z,1010.9
2023-06-11T12:33:35.040Z,1010.8
2023-06-11T12:49:09.418Z,1010.6
2023-06-11T13:04:43.811Z,1010.6
2023-06-11T13:20:20.958Z,1010.5
2023-06-11T13:35:56.011Z,1010.5
2023-06-11T13:51:30.561Z,1010.3
2023-06-11T14:07:04.952Z,1010.3
2023-06-11T14:22:39.271Z,1010.3
2023-06-11T14:38:13.695Z,1010.2
2023-06-11T14:53:48.036Z,1010.1
2023-06-11T15:09:22.370Z,1010
2023-06-11T15:24:56.698Z,1010
2023-06-11T15:40:31.049Z,1009.8
2023-06-11T15:56:05.424Z,1009.8
2023-06-11T16:11:39.961Z,1009.8
2023-06-11T16:27:14.277Z,1009.7
2023-06-11T16:42:48.587Z,1009.7
2023-06-11T16:58:22.872Z,1009.6
2023-06-11T17:13:57.242Z,1009.7
2023-06-11T17:29:33.452Z,1009.7
2023-06-11T17:45:08.732Z,1009.7
2023-06-11T18:00:43.263Z,1009.6
2023-06-11T18:16:17.920Z,1009.7
2023-06-11T18:31:52.796Z,1009.7
2023-06-11T18:47:27.146Z,1009.9
2023-06-11T19:03:01.868Z,1009.9
2023-06-11T19:18:36.685Z,1010
2023-06-11T19:34:10.980Z,1010.2
2023-06-11T19:49:45.345Z,1010.2
2023-06-11T20:05:21.555Z,1010.3
2023-06-11T20:20:56.312Z,1010.4
2023-06-11T20:36:30.698Z,1010.6
2023-06-11T20:52:05.029Z,1010.6
2023-06-11T21:07:39.233Z,1010.6
2023-06-11T21:23:13.419Z,1010.6
2023-06-11T21:38:47.750Z,1010.6
2023-06-11T21:54:21.926Z,1010.8
2023-06-11T22:09:56.046Z,1010.8
2023-06-11T22:25:30.210Z,1010.9
2023-06-11T22:41:04.418Z,1011
2023-06-11T22:56:38.608Z,1010.9
2023-06-11T23:12:12.827Z,1011
2023-06-11T23:27:46.997Z,1011
2023-06-11T23:43:21.300Z,1010.9
2023-06-11T23:58:55.477Z,1010.9
